Montreal, Missouri
Current Conditions -  °F | °C
As of 4:55 PM on Tuesday 25 Nov 2014 (Local Time) from KH21 Reporting Station
Clear Clear  
Wind Chill: 36°   Ceiling: Unl
Heat Index: 39°   Visibility: 10mi
Dew Point: 16°   Wind: 5mph
Humidity: 39%   Direction: 250°WSW
Pressure: 30.13"   Gusts: NA
Location:  37.97°N, 92.59°W
Report Text: KH21 252255Z AUTO 25004KT 10SM CLR 04/M09 A3013 RMK AO2
Loading
Personal Weather Stations






























Interactive Weather Map New forecast layout! Learn more

10-Day Weather Forecast

Advertisements
Track Severe Weather on mobile